Flight Track Log - Related Links

Times and Time Zones

All times are in EST time to prevent confusion due to time zone crossing. See the NKS216 flight status page for this flight to view local times or setup timezone preferences in your user account.

Time Position Orientation Groundspeed Altitude Reporting Facility
EST Latitude Longitude Course Direction KTS MPH feet Rate Location/Type
Sat 08:18:21 PM 33.9472 -118.4313 262° West 166 191 800  Level FlightAware ADS-B
Sat 08:18:52 PM 33.9444 -118.4595 263° West 181 208 1,300 1,355 Climbing FlightAware ADS-B
Sat 08:19:54 PM 33.8959 -118.4953 211° Southwest 258 297 2,900 2,198 Climbing FlightAware ADS-B
Sat 08:20:33 PM 33.8475 -118.5020 187° South 279 321 5,000 3,344 Climbing FlightAware ADS-B
Sat 08:20:55 PM 33.8142 -118.5056 185° South 287 330 6,300 3,484 Climbing FlightAware ADS-B
Sat 08:21:35 PM 33.7649 -118.5120 186° South 295 339 8,600 2,889 Climbing FlightAware ADS-B
Sat 08:23:37 PM 33.6510 -118.3646 133° Southeast 376 433 14,100 2,413 Climbing FlightAware ADS-B
Sat 08:24:34 PM 33.6448 -118.2446 94° East 381 438 15,800 2,041 Climbing FlightAware ADS-B
Sat 08:25:14 PM 33.6449 -118.1598 90° East 392 451 17,400 2,354 Climbing FlightAware ADS-B
Sat 08:25:53 PM 33.6374 -118.0718 96° East 407 468 18,900 2,385 Climbing FlightAware ADS-B
Sat 08:26:32 PM 33.6286 -117.9878 97° East 408 470 20,500 2,385 Climbing FlightAware ADS-B
Sat 08:27:11 PM 33.6190 -117.8965 97° East 412 474 22,000 1,923 Climbing FlightAware ADS-B
Sat 08:27:50 PM 33.6099 -117.8101 97° East 425 489 23,000 1,579 Climbing FlightAware ADS-B
Sat 08:29:05 PM 33.5907 -117.6320 97° East 441 507 25,000 1,737 Climbing FlightAware ADS-B
Sat 08:29:44 PM 33.5799 -117.5331 97° East 443 510 26,300 1,590 Climbing FlightAware ADS-B
Sat 08:30:28 PM 33.5694 -117.4368 97° East 452 520 27,200 1,244 Climbing FlightAware ADS-B
Sat 08:31:06 PM 33.5578 -117.3323 98° East 462 532 28,000 1,325 Climbing FlightAware ADS-B
Sat 08:31:45 PM 33.5469 -117.2343 98° East 470 541 28,900 1,154 Climbing FlightAware ADS-B
Sat 08:32:24 PM 33.5362 -117.1388 98° East 481 554 29,500 1,024 Climbing FlightAware ADS-B
Sat 08:33:07 PM 33.5224 -117.0170 98° East 489 563 30,300 1,537 Climbing FlightAware ADS-B
Sat 08:33:46 PM 33.5106 -116.9131 98° East 479 551 31,600 1,829 Climbing FlightAware ADS-B
Sat 08:34:29 PM 33.4977 -116.8010 98° East 476 548 32,800 1,317 Climbing FlightAware ADS-B
Sat 08:35:08 PM 33.4860 -116.6993 98° East 483 556 33,400 1,068 Climbing FlightAware ADS-B
Sat 08:35:42 PM 33.4757 -116.6126 98° East 485 558 34,100 1,256 Climbing FlightAware ADS-B
Sat 08:36:34 PM 33.4592 -116.4721 98° East 487 560 35,200 1,099 Climbing FlightAware ADS-B
Sat 08:37:53 PM 33.4445 -116.3470 98° East 488 562 36,500 697 Climbing FlightAware ADS-B
Sat 08:39:09 PM 33.4095 -116.0543 98° East 489 563 37,000 153 Climbing FlightAware ADS-B (EPLL / LCJ)
Sat 08:41:09 PM 33.3697 -115.7338 98° East 484 557 37,000  Level FlightAware ADS-B (EPLL / LCJ)
Sat 08:42:11 PM 33.3492 -115.5694 98° East 487 560 37,000  Level FlightAware ADS-B (EPLL / LCJ)
Sat 08:43:11 PM 33.3289 -115.4074 98° East 490 564 37,000  Level FlightAware ADS-B (EPLL / LCJ)
Sat 08:43:58 PM 33.3133 -115.2851 99° East 491 565 37,000  Level FlightAware ADS-B (EPLL / LCJ)
Sat 08:46:20 PM 33.2638 -114.9027 99° East 491 565 37,000 -28 Level FlightAware ADS-B (EPLL / LCJ)
Sat 08:47:29 PM 33.2461 -114.7444 99° East 490 564 36,900  Descending Albuquerque Center
Sat 08:48:30 PM 33.2236 -114.5839 99° East 490 564 37,000 49 Climbing Albuquerque Center
Sat 08:49:32 PM 33.2011 -114.4236 99° East 490 564 37,000 -49 Level Albuquerque Center
Sat 08:50:33 PM 33.1803 -114.2658 99° East 485 558 36,900 -49 Descending Albuquerque Center
Sat 08:51:34 PM 33.1542 -114.0747 99° East 485 558 36,900  Level Albuquerque Center
Sat 08:52:36 PM 33.1308 -113.9158 100° East 487 560 36,900  Level Albuquerque Center
Sat 08:53:37 PM 33.1097 -113.7561 99° East 487 560 36,900 49 Level Albuquerque Center
Sat 08:54:38 PM 33.0864 -113.5967 100° East 487 560 37,000 49 Climbing Albuquerque Center
Sat 08:55:40 PM 33.0636 -113.4375 100° East 486 559 37,000 -49 Level Albuquerque Center
Sat 08:56:41 PM 33.0411 -113.2806 100° East 482 555 36,900 -49 Descending Albuquerque Center
Sat 08:57:42 PM 33.0183 -113.1233 100° East 479 551 36,900  Level Albuquerque Center
Sat 08:58:44 PM 32.9944 -112.9661 100° East 479 551 36,900  Level Albuquerque Center
Sat 08:59:45 PM 32.9706 -112.8086 100° East 480 552 36,900 15 Level Albuquerque Center
Sat 09:05:20 PM 32.8328 -111.9052 100° East 482 555 37,000 16 Climbing FlightAware ADS-B
Sat 09:06:06 PM 32.8135 -111.7828 101° East 483 556 37,000  Level FlightAware ADS-B
Sat 09:06:46 PM 32.7990 -111.6918 101° East 482 555 37,000  Level FlightAware ADS-B
Sat 09:07:25 PM 32.7829 -111.5909 101° East 484 557 37,000  Level FlightAware ADS-B
Sat 09:08:05 PM 32.7638 -111.4712 101° East 484 557 37,000  Level FlightAware ADS-B
Sat 09:08:47 PM 32.7489 -111.3774 101° East 486 559 37,000  Level FlightAware ADS-B
Sat 09:09:26 PM 32.7299 -111.2597 101° East 488 562 37,000  Level FlightAware ADS-B
Sat 09:10:06 PM 32.7135 -111.1588 101° East 490 564 37,000  Level FlightAware ADS-B
Sat 09:11:05 PM 32.6875 -111.0011 101° East 494 568 37,000  Level FlightAware ADS-B
Sat 09:12:03 PM 32.6624 -110.8480 101° East 496 571 37,000  Level FlightAware ADS-B
Sat 09:12:46 PM 32.6425 -110.7283 101° East 497 572 37,000  Level FlightAware ADS-B
Sat 09:13:26 PM 32.6264 -110.6321 101° East 499 574 37,000  Level FlightAware ADS-B
Sat 09:14:06 PM 32.6125 -110.5141 98° East 500 575 37,000  Level FlightAware ADS-B
Sat 09:14:39 PM 32.6049 -110.4268 96° East 499 574 37,000  Level FlightAware ADS-B
Sat 09:15:46 PM 32.5856 -110.2467 97° East 497 572 37,000  Level FlightAware ADS-B
Sat 09:16:26 PM 32.5754 -110.1544 97° East 496 571 37,000  Level FlightAware ADS-B
Sat 09:16:56 PM 32.5643 -110.0554 98° East 497 572 37,000  Level FlightAware ADS-B
Sat 09:17:46 PM 32.5499 -109.9233 97° East 497 572 37,000  Level FlightAware ADS-B
Sat 09:19:04 PM 32.5259 -109.7084 97° East 501 577 37,000  Level FlightAware ADS-B
Sat 09:19:36 PM 32.5187 -109.6441 98° East 500 575 37,000  Level FlightAware ADS-B
Sat 09:20:13 PM 32.5056 -109.5417 98° East 506 582 37,000  Level Albuquerque Center
Sat 09:21:14 PM 32.4881 -109.3800 97° East 503 579 37,000  Level Albuquerque Center
Sat 09:22:16 PM 32.4689 -109.2181 98° East 502 578 37,000  Level Albuquerque Center
Sat 09:23:17 PM 32.4500 -109.0561 98° East 502 578 37,000  Level Albuquerque Center
Sat 09:24:18 PM 32.4272 -108.8614 98° East 502 578 37,000  Level Albuquerque Center
Sat 09:25:20 PM 32.4081 -108.7011 98° East 499 574 37,000  Level Albuquerque Center
Sat 09:26:21 PM 32.3872 -108.5419 99° East 495 570 37,000 -49 Level Albuquerque Center
Sat 09:27:23 PM 32.3681 -108.3844 98° East 496 571 36,900 -49 Descending Albuquerque Center
Sat 09:28:24 PM 32.3478 -108.2228 98° East 499 574 36,900 49 Level Albuquerque Center
Sat 09:29:25 PM 32.3272 -108.0597 98° East 502 578 37,000 49 Climbing Albuquerque Center
Sat 09:30:27 PM 32.3064 -107.8981 99° East 502 578 37,000  Level Albuquerque Center
Sat 09:31:28 PM 32.2819 -107.7028 98° East 504 580 37,000 -49 Level Albuquerque Center
Sat 09:32:29 PM 32.2611 -107.5411 99° East 503 579 36,900  Descending Albuquerque Center
Sat 09:33:30 PM 32.2397 -107.3747 99° East 503 579 37,000 49 Climbing Albuquerque Center
Sat 09:34:32 PM 32.2178 -107.2131 99° East 501 577 37,000  Level Albuquerque Center
Sat 09:35:33 PM 32.1961 -107.0378 98° East 504 580 37,000  Level Albuquerque Center
Sat 09:36:34 PM 32.1736 -106.8742 99° East 504 580 37,000  Level Albuquerque Center
Sat 09:37:36 PM 32.1511 -106.7050 99° East 501 577 37,000 -49 Level Albuquerque Center
Sat 09:38:37 PM 32.1275 -106.5428 100° East 504 580 36,900 -49 Descending Albuquerque Center
Sat 09:39:38 PM 32.1050 -106.3803 99° East 504 580 36,900 49 Level Albuquerque Center
Sat 09:40:39 PM 32.0817 -106.2181 100° East 504 580 37,000 49 Climbing Albuquerque Center
Sat 09:41:41 PM 32.0586 -106.0558 99° East 504 580 37,000 -49 Level Albuquerque Center
Sat 09:42:42 PM 32.0317 -105.8753 100° East 504 580 36,900 -49 Descending Albuquerque Center
Sat 09:43:43 PM 32.0081 -105.7117 100° East 506 582 36,900  Level Albuquerque Center
Sat 09:44:44 PM 31.9847 -105.5481 100° East 506 582 36,900 49 Level Albuquerque Center
Sat 09:45:45 PM 31.9603 -105.3856 100° East 504 580 37,000 49 Climbing Albuquerque Center
Sat 09:46:47 PM 31.9361 -105.2261 100° East 498 573 37,000 -49 Level Albuquerque Center
Sat 09:47:48 PM 31.9122 -105.0664 100° East 496 571 36,900 -49 Descending Albuquerque Center
Sat 09:48:49 PM 31.8886 -104.9039 100° East 497 572 36,900  Level Albuquerque Center
Sat 09:49:50 PM 31.8636 -104.7431 100° East 499 574 36,900 49 Level Albuquerque Center
Sat 09:50:51 PM 31.8392 -104.5842 100° East 497 572 37,000  Climbing Albuquerque Center
Sat 09:51:52 PM 31.8142 -104.4244 100° East 496 571 36,900  Descending Albuquerque Center
Sat 09:52:54 PM 31.7900 -104.2644 100° East 496 571 37,000 49 Climbing Albuquerque Center
Sat 09:53:55 PM 31.7639 -104.1039 101° East 497 572 37,000  Level Albuquerque Center
Sat 09:54:56 PM 31.7386 -103.9417 100° East 500 575 37,000  Level Albuquerque Center
Sat 09:55:57 PM 31.7097 -103.7558 100° East 500 575 37,000  Level Albuquerque Center
Sat 09:56:58 PM 31.6822 -103.5958 101° East 502 578 37,000 -49 Level Albuquerque Center
Sat 09:57:59 PM 31.6553 -103.4317 101° East 502 578 36,900  Descending Albuquerque Center
Sat 09:59:00 PM 31.6283 -103.2708 101° East 503 579 37,000 49 Climbing Albuquerque Center
Sat 10:00:01 PM 31.6014 -103.1114 101° East 501 577 37,000 -49 Level Albuquerque Center
Sat 10:01:02 PM 31.5736 -102.9508 101° East 502 578 36,900  Descending Albuquerque Center
Sat 10:02:16 PM 31.5400 -102.7578 101° East 503 579 37,000 44 Climbing Albuquerque Center
Sat 10:03:17 PM 31.5131 -102.5967 101° East 503 579 37,000  Level Albuquerque Center
Sat 10:04:18 PM 31.4817 -102.4133 101° East 516 594 37,000  Level Albuquerque Center
Sat 10:05:19 PM 31.4536 -102.2544 102° East 507 583 37,000  Level Albuquerque Center
Sat 10:06:20 PM 31.4247 -102.0958 102° East 503 579 37,000 -49 Level Albuquerque Center
Sat 10:07:21 PM 31.4006 -101.9461 101° East 501 577 36,900 -49 Descending Houston Center
Sat 10:08:22 PM 31.3725 -101.7867 102° East 499 574 36,900  Level Houston Center
Sat 10:09:23 PM 31.3425 -101.6267 102° East 502 578 36,900 49 Level Houston Center
Sat 10:10:24 PM 31.3139 -101.4667 102° East 503 579 37,000 49 Climbing Houston Center
Sat 10:11:25 PM 31.2786 -101.2739 102° East 506 582 37,000  Level Houston Center
Sat 10:12:26 PM 31.2494 -101.1133 102° East 506 582 37,000  Level Houston Center
Sat 10:13:27 PM 31.2225 -100.9694 102° East 504 580 37,000 -49 Level Houston Center
Sat 10:14:28 PM 31.1931 -100.8114 102° East 499 574 36,900 -50 Descending Houston Center
Sat 10:15:28 PM 31.1642 -100.6522 102° East 501 577 36,900  Level Houston Center
Sat 10:16:29 PM 31.1331 -100.4947 103° East 498 573 36,900  Level Houston Center
Sat 10:17:30 PM 31.1028 -100.3353 102° East 502 578 36,900  Level Houston Center
Sat 10:18:31 PM 31.0664 -100.1433 102° East 505 581 36,900 49 Level Houston Center
Sat 10:19:32 PM 31.0358 -99.9800 102° East 512 589 37,000 16 Climbing Houston Center
Sat 10:24:51 PM 30.9741 -99.1222 102° East 499 574 37,000  Level FlightAware ADS-B
Sat 10:28:26 PM 30.9494 -98.5392 93° East 513 590 37,000  Level FlightAware ADS-B
Sat 10:29:00 PM 30.9453 -98.4469 93° East 515 593 37,000 90 Level FlightAware ADS-B
Sat 10:29:33 PM 30.9409 -98.3556 93° East 512 589 37,100 95 Climbing FlightAware ADS-B
Sat 10:30:03 PM 30.9369 -98.2726 93° East 507 583 37,100 -91 Level FlightAware ADS-B
Sat 10:30:39 PM 30.9321 -98.1761 93° East 503 579 37,000 -91 Descending FlightAware ADS-B
Sat 10:31:09 PM 30.9283 -98.0952 93° East 500 575 37,000  Level FlightAware ADS-B
Sat 10:31:40 PM 30.9244 -98.0113 93° East 498 573 37,000  Level FlightAware ADS-B
Sat 10:32:11 PM 30.9205 -97.9301 93° East 495 570 37,000 -98 Level FlightAware ADS-B
Sat 10:32:41 PM 30.9164 -97.8495 93° East 495 570 36,900  Descending FlightAware ADS-B
Sat 10:32:51 PM 30.9150 -97.8232 93° East 493 567 37,000 462 Climbing FlightAware ADS-B (KGTU)
Sat 10:32:54 PM 30.9171 -97.8624 273° West 494 568 37,000  Level FlightAware ADS-B
Sat 10:33:16 PM 30.9117 -97.7570 93° East 495 570 37,000  Level FlightAware ADS-B
Sat 10:33:21 PM 30.9110 -97.7434 93° East 495 570 37,000 -500 Level FlightAware ADS-B
Sat 10:33:28 PM 30.9102 -97.7248 93° East 495 570 36,900 -1,200 Descending FlightAware ADS-B (KGTU)
Sat 10:33:51 PM 30.9071 -97.6654 93° East 497 572 36,400 -1,440 Descending FlightAware ADS-B
Sat 10:33:53 PM 30.9068 -97.6598 94° East 497 572 36,300 -1,800 Descending FlightAware ADS-B
Sat 10:34:11 PM 30.9044 -97.6123 93° East 497 572 35,800 -1,929 Descending FlightAware ADS-B (KGTU)
Sat 10:34:21 PM 30.9029 -97.5835 93° East 502 578 35,400 -2,143 Descending FlightAware ADS-B
Sat 10:34:25 PM 30.9024 -97.5734 93° East 503 579 35,300 -2,000 Descending FlightAware ADS-B
Sat 10:34:27 PM 30.9021 -97.5677 93° East 503 579 35,200 -2,000 Descending FlightAware ADS-B
Sat 10:34:43 PM 30.8997 -97.5246 94° East 509 586 34,700 -1,895 Descending FlightAware ADS-B
Sat 10:34:46 PM 30.8989 -97.5167 97° East 509 586 34,600 -1,800 Descending FlightAware ADS-B (KGTU)
Sat 10:34:53 PM 30.8960 -97.4961 99° East 511 588 34,400 -1,636 Descending FlightAware ADS-B
Sat 10:34:57 PM 30.8942 -97.4866 102° East 512 589 34,300 -1,000 Descending FlightAware ADS-B
Sat 10:35:05 PM 30.8893 -97.4662 106° East 509 586 34,200 -600 Descending FlightAware ADS-B
Sat 10:35:07 PM 30.8883 -97.4622 106° East 510 587 34,200 -1,000 Level FlightAware ADS-B
Sat 10:35:11 PM 30.8849 -97.4500 108° East 507 583 34,100 -828 Descending FlightAware ADS-B (KGTU)
Sat 10:35:36 PM 30.8676 -97.3860 108° East 504 580 33,800 -667 Descending FlightAware ADS-B
Sat 10:35:38 PM 30.8663 -97.3811 107° East 504 580 33,800 -600 Level FlightAware ADS-B
Sat 10:35:46 PM 30.8602 -97.3584 107° East 500 575 33,700 -1,500 Descending FlightAware ADS-B (KGTU)
Sat 10:36:06 PM 30.8469 -97.3083 107° East 499 574 33,100 -2,323 Descending FlightAware ADS-B
Sat 10:36:17 PM 30.8398 -97.2822 108° East 505 581 32,500 -3,176 Descending FlightAware ADS-B
Sat 10:36:23 PM 30.8353 -97.2656 108° East 503 579 32,200 -3,158 Descending FlightAware ADS-B (KGTU)
Sat 10:36:36 PM 30.8257 -97.2302 108° East 505 581 31,500 -2,400 Descending FlightAware ADS-B
Sat 10:36:48 PM 30.8183 -97.2027 107° East 502 578 31,200 -1,935 Descending FlightAware ADS-B
Sat 10:37:07 PM 30.8052 -97.1520 107° East 495 570 30,500 -2,069 Descending FlightAware ADS-B
Sat 10:37:17 PM 30.7984 -97.1258 107° East 492 566 30,200 -1,935 Descending FlightAware ADS-B
Sat 10:37:38 PM 30.7849 -97.0742 107° East 484 557 29,500 -2,143 Descending FlightAware ADS-B
Sat 10:37:45 PM 30.7802 -97.0564 107° East 478 550 29,200 -1,895 Descending FlightAware ADS-B (KGTU)
Sat 10:37:57 PM 30.7721 -97.0264 107° East 477 549 28,900 -1,826 Descending FlightAware ADS-B
Sat 10:38:08 PM 30.7651 -97.0010 108° East 472 543 28,500 -2,000 Descending FlightAware ADS-B
Sat 10:38:27 PM 30.7528 -96.9559 108° East 467 537 27,900 -1,800 Descending FlightAware ADS-B
Sat 10:38:38 PM 30.7455 -96.9287 107° East 463 533 27,600 -1,756 Descending FlightAware ADS-B
Sat 10:39:08 PM 30.7276 -96.8622 107° East 451 519 26,700 -1,935 Descending FlightAware ADS-B
Sat 10:39:09 PM 30.7256 -96.8547 107° East 450 518 26,600 -1,818 Descending FlightAware ADS-B
Sat 10:39:41 PM 30.7063 -96.7835 107° East 439 505 25,700 -1,692 Descending FlightAware ADS-B
Sat 10:39:48 PM 30.7024 -96.7691 108° East 438 504 25,500 -2,000 Descending FlightAware ADS-B
Sat 10:40:11 PM 30.6885 -96.7180 108° East 432 497 24,700 -1,950 Descending FlightAware ADS-B
Sat 10:40:28 PM 30.6787 -96.6817 107° East 428 493 24,200 -1,742 Descending FlightAware ADS-B
Sat 10:40:42 PM 30.6701 -96.6492 107° East 424 488 23,800 -1,846 Descending FlightAware ADS-B
Sat 10:41:07 PM 30.6555 -96.5957 108° East 417 480 23,000 -1,875 Descending FlightAware ADS-B
Sat 10:41:14 PM 30.6514 -96.5808 108° East 416 479 22,800 -1,784 Descending FlightAware ADS-B
Sat 10:41:44 PM 30.6338 -96.5169 108° East 407 468 21,900 -1,765 Descending FlightAware ADS-B
Sat 10:41:48 PM 30.6324 -96.5117 108° East 407 468 21,800 -1,742 Descending FlightAware ADS-B
Sat 10:42:15 PM 30.6166 -96.4543 108° East 401 461 21,000 -1,650 Descending FlightAware ADS-B
Sat 10:42:28 PM 30.6096 -96.4286 108° East 399 459 20,700 -1,800 Descending FlightAware ADS-B
Sat 10:42:45 PM 30.5997 -96.3924 108° East 396 456 20,100 -1,846 Descending FlightAware ADS-B
Sat 10:43:07 PM 30.5882 -96.3495 107° East 393 452 19,500 -1,800 Descending FlightAware ADS-B
Sat 10:43:15 PM 30.5833 -96.3316 108° East 391 450 19,200 -2,000 Descending FlightAware ADS-B
Sat 10:43:46 PM 30.5665 -96.2716 108° East 390 449 18,200 -2,063 Descending FlightAware ADS-B
Sat 10:43:47 PM 30.5658 -96.2688 106° East 391 450 18,100 -1,800 Descending FlightAware ADS-B
Sat 10:44:16 PM 30.5500 -96.2121 108° East 386 444 17,300 -1,800 Descending FlightAware ADS-B
Sat 10:44:17 PM 30.5492 -96.2091 107° East 387 445 17,200 -1,800 Descending FlightAware ADS-B
Sat 10:44:46 PM 30.5335 -96.1526 108° East 381 438 16,400 -1,800 Descending FlightAware ADS-B
Sat 10:44:47 PM 30.5333 -96.1515 105° East 382 440 16,300 -1,800 Descending FlightAware ADS-B
Sat 10:45:16 PM 30.5173 -96.0941 108° East 374 430 15,500 -1,742 Descending FlightAware ADS-B
Sat 10:45:18 PM 30.5167 -96.0920 109° East 375 432 15,400 -1,688 Descending FlightAware ADS-B
Sat 10:45:48 PM 30.5016 -96.0367 108° East 368 423 14,600 -1,729 Descending FlightAware ADS-B
Sat 10:46:17 PM 30.4862 -95.9803 108° East 360 414 13,700 -1,800 Descending FlightAware ADS-B
Sat 10:46:48 PM 30.4708 -95.9249 108° East 353 406 12,800 -1,650 Descending FlightAware ADS-B
Sat 10:46:57 PM 30.4661 -95.9083 108° East 352 405 12,600 -1,500 Descending FlightAware ADS-B
Sat 10:47:12 PM 30.4585 -95.8814 108° East 347 399 12,200 -1,714 Descending FlightAware ADS-B
Sat 10:47:18 PM 30.4549 -95.8710 112° Southeast 346 398 12,000 -1,636 Descending FlightAware ADS-B
Sat 10:47:23 PM 30.4519 -95.8645 118° Southeast 342 394 11,900 -667 Descending FlightAware ADS-B
Sat 10:47:27 PM 30.4476 -95.8574 125° Southeast 339 390 11,900  Level FlightAware ADS-B
Sat 10:47:28 PM 30.4466 -95.8561 132° Southeast 336 387 11,900  Level FlightAware ADS-B
Sat 10:47:32 PM 30.4425 -95.8509 132° Southeast 331 381 11,900  Level FlightAware ADS-B
Sat 10:47:37 PM 30.4370 -95.8453 138° Southeast 323 372 11,900  Level FlightAware ADS-B
Sat 10:47:59 PM 30.4132 -95.8210 139° Southeast 309 356 11,900 -146 Level FlightAware ADS-B
Sat 10:48:18 PM 30.3937 -95.8003 138° Southeast 307 353 11,800 -414 Descending FlightAware ADS-B
Sat 10:48:28 PM 30.3820 -95.7879 137° Southeast 304 350 11,700 -1,231 Descending FlightAware ADS-B
Sat 10:48:57 PM 30.3526 -95.7568 138° Southeast 300 345 11,000 -1,355 Descending FlightAware ADS-B
Sat 10:48:59 PM 30.3508 -95.7550 139° Southeast 299 344 11,000 -1,200 Level FlightAware ADS-B
Sat 10:49:27 PM 30.3221 -95.7248 138° Southeast 293 337 10,400 -1,400 Descending FlightAware ADS-B
Sat 10:49:29 PM 30.3202 -95.7227 136° Southeast 292 336 10,300 -1,412 Descending FlightAware ADS-B
Sat 10:49:44 PM 30.3057 -95.7076 138° Southeast 292 336 10,000 -1,500 Descending FlightAware ADS-B
Sat 10:49:45 PM 30.3044 -95.7062 137° Southeast 290 334 9,900 -1,765 Descending FlightAware ADS-B
Sat 10:50:01 PM 30.2893 -95.6903 138° Southeast 290 334 9,500 -1,412 Descending FlightAware ADS-B
Sat 10:50:02 PM 30.2872 -95.6882 138° Southeast 290 334 9,500 -1,765 Level FlightAware ADS-B
Sat 10:50:18 PM 30.2718 -95.6721 138° Southeast 290 334 9,000 -1,765 Descending FlightAware ADS-B
Sat 10:50:19 PM 30.2707 -95.6709 137° Southeast 290 334 9,000 -1,600 Level FlightAware ADS-B
Sat 10:50:33 PM 30.2566 -95.6563 138° Southeast 290 334 8,600 -1,667 Descending FlightAware ADS-B
Sat 10:50:37 PM 30.2522 -95.6516 138° Southeast 290 334 8,500 -1,500 Descending FlightAware ADS-B
Sat 10:50:49 PM 30.2406 -95.6394 138° Southeast 287 330 8,200 -1,667 Descending FlightAware ADS-B
Sat 10:50:55 PM 30.2347 -95.6332 138° Southeast 288 331 8,000 -1,600 Descending FlightAware ADS-B
Sat 10:51:04 PM 30.2257 -95.6238 138° Southeast 288 331 7,800 -1,579 Descending FlightAware ADS-B
Sat 10:51:14 PM 30.2164 -95.6142 138° Southeast 288 331 7,500 -1,600 Descending FlightAware ADS-B
Sat 10:51:19 PM 30.2108 -95.6085 139° Southeast 287 330 7,400 -1,765 Descending FlightAware ADS-B
Sat 10:51:31 PM 30.2002 -95.5977 139° Southeast 288 331 7,000 -1,667 Descending FlightAware ADS-B
Sat 10:51:37 PM 30.1928 -95.5901 139° Southeast 286 329 6,900 -1,579 Descending FlightAware ADS-B
Sat 10:51:50 PM 30.1814 -95.5782 138° Southeast 289 333 6,500 -1,875 Descending FlightAware ADS-B
Sat 10:51:53 PM 30.1774 -95.5741 138° Southeast 288 331 6,400 -1,059 Descending FlightAware ADS-B
Sat 10:52:07 PM 30.1638 -95.5599 138° Southeast 283 326 6,200 -750 Descending FlightAware ADS-B
Sat 10:52:09 PM 30.1617 -95.5578 139° Southeast 282 325 6,200 -1,000 Level FlightAware ADS-B
Sat 10:52:25 PM 30.1466 -95.5420 138° Southeast 274 315 5,900 -581 Descending FlightAware ADS-B
Sat 10:52:40 PM 30.1323 -95.5270 138° Southeast 277 319 5,900  Level FlightAware ADS-B
Sat 10:52:45 PM 30.1271 -95.5216 138° Southeast 278 320 5,900  Level FlightAware ADS-B
Sat 10:52:56 PM 30.1172 -95.5110 137° Southeast 278 320 5,900  Level FlightAware ADS-B
Sat 10:52:59 PM 30.1142 -95.5072 132° Southeast 279 321 5,900  Level FlightAware ADS-B
Sat 10:53:00 PM 30.1135 -95.5061 126° Southeast 280 322 5,900  Level FlightAware ADS-B
Sat 10:53:07 PM 30.1093 -95.4980 121° Southeast 280 322 5,900  Level FlightAware ADS-B
Sat 10:53:12 PM 30.1070 -95.4908 110° East 281 323 5,900  Level FlightAware ADS-B
Sat 10:53:13 PM 30.1067 -95.4892 102° East 281 323 5,900  Level FlightAware ADS-B
Sat 10:53:19 PM 30.1059 -95.4815 97° East 281 323 5,900  Level FlightAware ADS-B
Sat 10:53:20 PM 30.1058 -95.4778 91° East 280 322 5,900  Level FlightAware ADS-B
Sat 10:53:25 PM 30.1060 -95.4716 88° East 280 322 5,900  Level FlightAware ADS-B
Sat 10:53:46 PM 30.1068 -95.4410 88° East 277 319 5,900 -167 Level FlightAware ADS-B
Sat 10:54:01 PM 30.1068 -95.4194 90° East 264 304 5,800 -353 Descending FlightAware ADS-B
Sat 10:54:03 PM 30.1067 -95.4165 92° East 264 304 5,800 -400 Level FlightAware ADS-B
Sat 10:54:16 PM 30.1066 -95.3982 90° East 257 296 5,700 -667 Descending FlightAware ADS-B
Sat 10:54:21 PM 30.1065 -95.3928 91° East 255 293 5,600 -462 Descending FlightAware ADS-B
Sat 10:54:29 PM 30.1064 -95.3803 91° East 249 287 5,600 -667 Level FlightAware ADS-B
Sat 10:54:39 PM 30.1063 -95.3672 90° East 245 282 5,400 -750 Descending FlightAware ADS-B
Sat 10:54:45 PM 30.1063 -95.3599 90° East 243 280 5,400 -667 Level FlightAware ADS-B
Sat 10:54:57 PM 30.1063 -95.3446 90° East 238 274 5,200 -800 Descending FlightAware ADS-B
Sat 10:55:00 PM 30.1063 -95.3405 89° East 236 272 5,200 -400 Level FlightAware ADS-B
Sat 10:55:12 PM 30.1063 -95.3262 90° East 232 267 5,100 -857 Descending FlightAware ADS-B
Sat 10:55:14 PM 30.1063 -95.3237 90° East 232 267 5,000 -1,125 Descending FlightAware ADS-B
Sat 10:55:28 PM 30.1063 -95.3066 90° East 227 261 4,800 -667 Descending FlightAware ADS-B
Sat 10:55:32 PM 30.1063 -95.3016 90° East 227 261 4,800 -800 Level FlightAware ADS-B
Sat 10:55:43 PM 30.1063 -95.2882 90° East 225 259 4,600 -1,263 Descending FlightAware ADS-B
Sat 10:55:51 PM 30.1063 -95.2795 90° East 227 261 4,400 -1,500 Descending FlightAware ADS-B
Sat 10:55:59 PM 30.1063 -95.2694 90° East 229 264 4,200 -1,667 Descending FlightAware ADS-B
Sat 10:56:09 PM 30.1063 -95.2565 90° East 232 267 3,900 -1,200 Descending FlightAware ADS-B
Sat 10:56:14 PM 30.1064 -95.2504 89° East 231 266 3,900 -1,000 Level FlightAware ADS-B
Sat 10:56:27 PM 30.1064 -95.2348 90° East 231 266 3,600 -1,286 Descending FlightAware ADS-B
Sat 10:56:28 PM 30.1064 -95.2340 86° East 232 267 3,600 -1,000 Level FlightAware ADS-B
Sat 10:56:45 PM 30.1065 -95.2117 90° East 230 265 3,300 -1,091 Descending FlightAware ADS-B
Sat 10:57:01 PM 30.1065 -95.1930 90° East 229 264 3,000 -1,263 Descending FlightAware ADS-B
Sat 10:57:04 PM 30.1063 -95.1893 94° East 229 264 2,900 -1,714 Descending FlightAware ADS-B
Sat 10:57:08 PM 30.1058 -95.1847 97° East 229 264 2,800 -1,000 Descending FlightAware ADS-B
Sat 10:57:10 PM 30.1053 -95.1828 106° East 229 264 2,800 -1,500 Level FlightAware ADS-B
Sat 10:57:12 PM 30.1045 -95.1799 108° East 228 262 2,700 -1,000 Descending FlightAware ADS-B
Sat 10:57:16 PM 30.1026 -95.1753 116° Southeast 226 260 2,700 -750 Level FlightAware ADS-B
Sat 10:57:20 PM 30.1004 -95.1715 124° Southeast 224 258 2,600 -1,200 Descending FlightAware ADS-B
Sat 10:57:21 PM 30.1010 -95.1725 306° West 225 259 2,600  Level FlightAware ADS-B
Sat 10:57:24 PM 30.0977 -95.1684 133° Southeast 221 254 2,600 -1,000 Level FlightAware ADS-B
Sat 10:57:27 PM 30.0949 -95.1658 141° Southeast 218 251 2,500 -857 Descending FlightAware ADS-B
Sat 10:57:31 PM 30.0912 -95.1635 152° Southeast 214 246 2,500  Level FlightAware ADS-B
Sat 10:57:33 PM 30.0908 -95.1632 153° Southeast 214 246 2,500 -1,500 Level FlightAware ADS-B
Sat 10:57:35 PM 30.0882 -95.1623 162° South 211 243 2,400 -1,200 Descending FlightAware ADS-B
Sat 10:57:38 PM 30.0847 -95.1615 169° South 207 238 2,400  Level FlightAware ADS-B
Sat 10:57:39 PM 30.0837 -95.1613 170° South 208 239 2,400  Level FlightAware ADS-B
Sat 10:57:42 PM 30.0815 -95.1612 178° South 205 236 2,400  Level FlightAware ADS-B
Sat 10:57:45 PM 30.0784 -95.1613 182° South 203 234 2,400 -947 Level FlightAware ADS-B
Sat 10:58:01 PM 30.0637 -95.1621 183° South 198 228 2,100 -900 Descending FlightAware ADS-B
Sat 10:58:05 PM 30.0611 -95.1623 183° South 199 229 2,100 -800 Level FlightAware ADS-B
Sat 10:58:16 PM 30.0497 -95.1629 183° South 198 228 1,900 -1,059 Descending FlightAware ADS-B
Sat 10:58:22 PM 30.0453 -95.1631 182° South 200 230 1,800 -1,800 Descending FlightAware ADS-B
Sat 10:58:26 PM 30.0405 -95.1633 182° South 199 229 1,600 -1,200 Descending FlightAware ADS-B
Sat 10:58:32 PM 30.0352 -95.1636 183° South 199 229 1,600 -800 Level FlightAware ADS-B
Sat 10:58:41 PM 30.0275 -95.1639 182° South 200 230 1,400 -1,200 Descending FlightAware ADS-B
Sat 10:58:42 PM 30.0230 -95.1641 183° South 196 226 1,400  Level FlightAware ADS-B
Sat 10:59:08 PM 30.0027 -95.1685 191° South 199 229 1,400  Level FlightAware ADS-B
Sat 10:59:11 PM 29.9996 -95.1697 199° South 200 230 1,400  Level FlightAware ADS-B
Sat 10:59:18 PM 29.9940 -95.1725 203° Southwest 200 230 1,400  Level FlightAware ADS-B
Sat 10:59:22 PM 29.9905 -95.1749 211° Southwest 200 230 1,400  Level FlightAware ADS-B
Sat 10:59:26 PM 29.9876 -95.1774 217° Southwest 200 230 1,400  Level FlightAware ADS-B
Sat 10:59:29 PM 29.9843 -95.1815 227° Southwest 201 231 1,400  Level FlightAware ADS-B
Sat 10:59:31 PM 29.9848 -95.1808 48° Northeast 201 231 1,400  Level FlightAware ADS-B
Sat 10:59:34 PM 29.9829 -95.1836 232° Southwest 200 230 1,400 1,000 Level FlightAware ADS-B
Sat 10:59:37 PM 29.9815 -95.1864 240° Southwest 201 231 1,500  Climbing FlightAware ADS-B
Sat 10:59:42 PM 29.9794 -95.1917 245° Southwest 201 231 1,400  Descending FlightAware ADS-B
Sat 10:59:48 PM 29.9779 -95.2011 260° West 202 232 1,500  Climbing FlightAware ADS-B
Sat 10:59:54 PM 29.9779 -95.2035 269° West 202 232 1,400 -261 Descending FlightAware ADS-B
Sat 11:00:11 PM 29.9788 -95.2216 273° West 191 220 1,400 -300 Level FlightAware ADS-B
Sat 11:00:14 PM 29.9787 -95.2245 268° West 189 217 1,300 -400 Descending FlightAware ADS-B
Sat 11:00:26 PM 29.9780 -95.2369 266° West 177 204 1,300 -286 Level FlightAware ADS-B
Sat 11:00:35 PM 29.9778 -95.2447 268° West 167 192 1,200 -1,200 Descending FlightAware ADS-B
Sat 11:00:46 PM 29.9778 -95.2539 270° West 159 183 900 -1,364 Descending FlightAware ADS-B
Sat 11:00:57 PM 29.9777 -95.2628 269° West 149 171 700 -1,091 Descending FlightAware ADS-B
Sat 11:01:08 PM 29.9777 -95.2717 270° West 142 163 500 -947 Descending FlightAware ADS-B
Sat 11:01:16 PM 29.9777 -95.2774 270° West 134 154 400 -783 Descending FlightAware ADS-B
Sat 11:01:31 PM 29.9777 -95.2881 270° West 129 148 200 -621 Descending FlightAware ADS-B
Sat 11:01:45 PM 29.9777 -95.2973 270° West 127 146 100 -429 Descending FlightAware ADS-B
Sat 11:02:27 PM 29.9776 -95.3219 270° West 78 90 -143 Descending FlightAware ADS-B

Login

Don't have an account? Register now (free) for customized features, flight alerts, and more!